Time;durP1;ratioP1;P1;durP2;ratioP2;P2;SDS_P1;SDS_P2;PMS_P1;PMS_P2;Temp;Humidity;BMP_temperature;BMP_pressure;BME280_temperature;BME280_humidity;BME280_pressure;Samples;Min_cycle;Max_cycle;Signal;HPM_P1;HPM_P2
2023/05/21 00:01:49;;;;;;;4.40;0.50;;;;;;;6.45;100.00;101598.34;5122770;27;20023;-49
2023/05/21 00:04:14;;;;;;;0.55;0.40;;;;;;;6.44;100.00;101597.50;5120018;27;20053;-50
2023/05/21 00:06:40;;;;;;;0.98;0.50;;;;;;;6.45;100.00;101600.97;5115557;27;20048;-51
2023/05/21 00:09:06;;;;;;;1.17;0.80;;;;;;;6.47;100.00;101599.03;5121532;27;20077;-50
2023/05/21 00:11:31;;;;;;;2.28;0.52;;;;;;;6.51;100.00;101595.16;5120799;27;20023;-50
2023/05/21 00:13:57;;;;;;;4.05;0.82;;;;;;;6.57;100.00;101589.34;5116485;27;20512;-49
2023/05/21 00:16:23;;;;;;;1.55;0.43;;;;;;;6.70;100.00;101583.78;5113375;27;20035;-50
2023/05/21 00:18:48;;;;;;;3.35;0.65;;;;;;;6.74;100.00;101585.19;5114377;27;20039;-52
2023/05/21 00:21:16;;;;;;;2.00;1.25;;;;;;;6.82;100.00;101576.59;5119318;27;20079;-49
2023/05/21 00:23:42;;;;;;;1.08;0.73;;;;;;;6.86;100.00;101577.97;5117171;27;20490;-50
2023/05/21 00:26:07;;;;;;;1.83;0.35;;;;;;;6.85;100.00;101576.31;5116513;27;20123;-48
2023/05/21 00:28:32;;;;;;;1.13;0.38;;;;;;;6.83;100.00;101567.69;5116918;27;20035;-49
2023/05/21 00:30:58;;;;;;;2.65;0.32;;;;;;;6.88;100.00;101570.75;5117544;27;20614;-49
2023/05/21 00:33:25;;;;;;;4.63;0.98;;;;;;;6.88;100.00;101571.56;5114905;27;20057;-52
2023/05/21 00:35:51;;;;;;;1.85;0.63;;;;;;;6.96;100.00;101568.25;5116512;27;20023;-49
2023/05/21 00:38:16;;;;;;;3.38;2.28;;;;;;;7.02;100.00;101567.66;5120329;27;20502;-52
2023/05/21 00:40:42;;;;;;;2.97;1.13;;;;;;;7.03;100.00;101568.53;5099429;27;20066;-48
2023/05/21 00:43:08;;;;;;;1.10;0.55;;;;;;;7.08;100.00;101561.03;5112703;27;20111;-47
2023/05/21 00:45:35;;;;;;;7.03;1.00;;;;;;;7.14;100.00;101566.53;5120307;27;20407;-52
2023/05/21 00:48:05;;;;;;;3.95;0.85;;;;;;;7.20;100.00;101559.84;5116019;27;20071;-48
2023/05/21 00:50:30;;;;;;;3.75;1.42;;;;;;;7.20;100.00;101560.72;5120694;27;20084;-48
2023/05/21 00:52:56;;;;;;;9.98;2.17;;;;;;;7.28;100.00;101569.69;5121394;27;20413;-52
2023/05/21 00:55:21;;;;;;;2.40;0.80;;;;;;;7.29;100.00;101571.38;5097358;28;20550;-49
2023/05/21 00:57:48;;;;;;;6.72;1.08;;;;;;;7.23;100.00;101575.44;5110033;27;20471;-50
2023/05/21 01:00:15;;;;;;;3.45;1.13;;;;;;;7.24;100.00;101569.16;5118513;27;20068;-53
2023/05/21 01:02:40;;;;;;;2.53;1.02;;;;;;;7.19;100.00;101569.59;5112187;27;20394;-48
2023/05/21 01:05:06;;;;;;;8.23;1.17;;;;;;;7.14;100.00;101574.44;5120973;27;20080;-51
2023/05/21 01:07:37;;;;;;;7.60;0.70;;;;;;;7.05;100.00;101575.31;5118930;27;20065;-49
2023/05/21 01:10:05;;;;;;;12.50;1.10;;;;;;;7.06;100.00;101573.50;5115903;27;20424;-47
2023/05/21 01:12:32;;;;;;;5.00;1.48;;;;;;;7.12;100.00;101579.03;5120030;27;20035;-49
2023/05/21 01:15:05;;;;;;;6.13;1.10;;;;;;;7.09;100.00;101581.13;5120488;27;20375;-48
2023/05/21 01:17:30;;;;;;;4.75;1.42;;;;;;;7.04;100.00;101580.72;5109707;27;20567;-49
2023/05/21 01:19:57;;;;;;;4.22;2.13;;;;;;;7.03;100.00;101574.63;5112654;27;20126;-49
2023/05/21 01:22:23;;;;;;;2.63;0.98;;;;;;;7.01;100.00;101571.28;5118707;27;20122;-48
2023/05/21 01:24:49;;;;;;;6.55;2.42;;;;;;;7.08;100.00;101572.38;5114071;27;20036;-50
2023/05/21 01:27:15;;;;;;;3.83;1.40;;;;;;;7.08;100.00;101574.19;5118247;27;20031;-50
2023/05/21 01:29:41;;;;;;;5.03;1.15;;;;;;;7.07;100.00;101577.78;5112522;27;20097;-49
2023/05/21 01:32:21;;;;;;;1.95;1.20;;;;;;;7.11;100.00;101580.00;5113245;27;20038;-50
2023/05/21 01:34:59;;;;;;;3.33;1.65;;;;;;;7.18;100.00;101581.13;5118865;27;20023;-50
2023/05/21 01:37:36;;;;;;;4.65;1.38;;;;;;;7.19;100.00;101572.22;5117599;27;20391;-47
2023/05/21 01:40:09;;;;;;;2.25;1.13;;;;;;;7.18;100.00;101570.56;5118850;27;20118;-50
2023/05/21 01:42:37;;;;;;;3.78;1.30;;;;;;;7.25;100.00;101572.63;5105470;27;20031;-47
2023/05/21 01:45:05;;;;;;;2.78;1.00;;;;;;;7.26;100.00;101575.13;5119276;27;20059;-52
2023/05/21 01:47:31;;;;;;;7.45;1.88;;;;;;;7.32;100.00;101582.47;5111555;27;20503;-48
2023/05/21 01:49:59;;;;;;;11.88;2.35;;;;;;;7.37;100.00;101582.88;5115963;27;20023;-50
2023/05/21 01:52:25;;;;;;;4.72;1.10;;;;;;;7.32;100.00;101579.84;5113609;27;20383;-50
2023/05/21 01:54:50;;;;;;;6.78;1.27;;;;;;;7.27;100.00;101570.69;5120560;27;20035;-48
2023/05/21 01:57:17;;;;;;;1.02;0.93;;;;;;;7.25;100.00;101570.00;5116414;27;20059;-53
2023/05/21 01:59:43;;;;;;;1.67;1.58;;;;;;;7.19;100.00;101569.59;5118921;27;20035;-50
2023/05/21 02:02:08;;;;;;;7.13;2.05;;;;;;;7.24;100.00;101570.97;5117096;27;20464;-53
2023/05/21 02:04:34;;;;;;;3.08;1.70;;;;;;;7.34;100.00;101577.06;5111628;27;20034;-52
2023/05/21 02:06:59;;;;;;;9.63;1.60;;;;;;;7.33;100.00;101575.38;5117581;27;20026;-50
2023/05/21 02:09:24;;;;;;;4.72;1.75;;;;;;;7.33;100.00;101578.00;5116971;27;20168;-47
2023/05/21 02:11:50;;;;;;;3.85;1.20;;;;;;;7.36;100.00;101580.41;5118491;27;20038;-53
2023/05/21 02:14:15;;;;;;;8.40;1.52;;;;;;;7.32;100.00;101576.38;5116308;27;20115;-49
2023/05/21 02:16:41;;;;;;;5.68;1.85;;;;;;;7.30;100.00;101571.22;5109231;27;20019;-50
2023/05/21 02:19:09;;;;;;;8.70;1.58;;;;;;;7.30;100.00;101578.31;5119392;27;20027;-49
2023/05/21 02:21:34;;;;;;;3.35;1.25;;;;;;;7.27;100.00;101575.97;5111863;27;20031;-52
2023/05/21 02:24:00;;;;;;;4.85;2.15;;;;;;;7.18;100.00;101583.75;5118592;27;20075;-50
2023/05/21 02:26:26;;;;;;;6.65;1.48;;;;;;;7.25;100.00;101577.91;5116991;27;20044;-49
2023/05/21 02:28:51;;;;;;;2.22;1.33;;;;;;;7.31;100.00;101575.53;5118621;27;20613;-52
2023/05/21 02:31:17;;;;;;;3.53;1.70;;;;;;;7.31;100.00;101574.72;5121579;27;20031;-55
2023/05/21 02:33:42;;;;;;;5.15;2.30;;;;;;;7.28;100.00;101577.63;5109229;27;20024;-47
2023/05/21 02:36:11;;;;;;;1.48;1.02;;;;;;;7.27;100.00;101576.78;5118519;27;20395;-51
2023/05/21 02:38:42;;;;;;;4.60;1.50;;;;;;;7.26;100.00;101569.03;5117005;27;20055;-52
2023/05/21 02:41:08;;;;;;;1.60;0.93;;;;;;;7.22;100.00;101561.38;5111376;27;20031;-50
2023/05/21 02:43:34;;;;;;;9.68;2.13;;;;;;;7.21;100.00;101557.09;5112131;27;20023;-50
2023/05/21 02:45:59;;;;;;;8.23;2.38;;;;;;;7.24;100.00;101569.16;5111009;27;20444;-52
2023/05/21 02:48:24;;;;;;;9.38;2.85;;;;;;;7.26;100.00;101575.13;5116499;27;20130;-47
2023/05/21 02:50:50;;;;;;;4.80;2.17;;;;;;;7.28;100.00;101577.63;5112076;27;20520;-54
2023/05/21 02:53:15;;;;;;;4.70;2.28;;;;;;;7.24;100.00;101571.81;5116567;27;20031;-47
2023/05/21 02:55:41;;;;;;;4.65;2.75;;;;;;;7.26;100.00;101576.94;5114881;27;20447;-51
2023/05/21 02:58:06;;;;;;;8.10;1.95;;;;;;;7.22;100.00;101556.09;5114836;27;20497;-51
2023/05/21 03:00:31;;;;;;;8.02;2.00;;;;;;;7.26;100.00;101558.47;5122439;27;20096;-53
2023/05/21 03:02:57;;;;;;;6.93;2.20;;;;;;;7.30;100.00;101560.66;5113687;27;20032;-49
2023/05/21 03:05:23;;;;;;;7.55;2.75;;;;;;;7.37;100.00;101558.28;5110176;27;20533;-51
2023/05/21 03:07:48;;;;;;;7.68;1.70;;;;;;;7.37;100.00;101560.94;5113471;27;20066;-49
2023/05/21 03:10:14;;;;;;;3.72;1.80;;;;;;;7.40;100.00;101556.19;5110657;27;20079;-51
2023/05/21 03:12:39;;;;;;;7.95;2.30;;;;;;;7.42;100.00;101556.88;5116646;27;20330;-48
2023/05/21 03:15:05;;;;;;;6.35;1.65;;;;;;;7.41;100.00;101555.25;5118805;27;20031;-53
2023/05/21 03:17:30;;;;;;;2.95;1.48;;;;;;;7.39;100.00;101553.72;5117991;27;20023;-48
2023/05/21 03:19:56;;;;;;;8.30;2.63;;;;;;;7.39;100.00;101551.06;5115139;27;20080;-50
2023/05/21 03:22:21;;;;;;;5.97;3.05;;;;;;;7.37;100.00;101550.38;5113950;27;20073;-51
2023/05/21 03:24:47;;;;;;;2.53;1.77;;;;;;;7.35;100.00;101553.16;5111729;27;20034;-53
2023/05/21 03:27:12;;;;;;;13.60;2.15;;;;;;;7.35;100.00;101552.31;5117240;27;20035;-52
2023/05/21 03:29:38;;;;;;;2.03;1.33;;;;;;;7.30;100.00;101550.13;5122308;27;20626;-49
2023/05/21 03:32:05;;;;;;;1.65;1.20;;;;;;;7.32;100.00;101553.44;5118615;27;20031;-51
2023/05/21 03:34:33;;;;;;;7.72;1.85;;;;;;;7.28;100.00;101546.81;5123263;27;20032;-51
2023/05/21 03:36:58;;;;;;;4.85;1.92;;;;;;;7.26;100.00;101548.75;5118443;27;20042;-49
2023/05/21 03:39:23;;;;;;;4.38;2.42;;;;;;;7.22;100.00;101548.19;5121943;27;20027;-47
2023/05/21 03:41:49;;;;;;;2.40;1.90;;;;;;;7.20;100.00;101554.59;5118558;27;20413;-50
2023/05/21 03:44:14;;;;;;;4.20;1.52;;;;;;;7.25;100.00;101547.06;5115231;27;20041;-52
2023/05/21 03:46:40;;;;;;;7.45;1.90;;;;;;;7.31;100.00;101548.34;5114362;27;20109;-48
2023/05/21 03:49:05;;;;;;;9.32;2.15;;;;;;;7.33;100.00;101559.53;5120499;27;20392;-50
2023/05/21 03:51:30;;;;;;;8.98;1.67;;;;;;;7.30;100.00;101555.38;5102775;27;20064;-50
2023/05/21 03:53:58;;;;;;;6.65;2.30;;;;;;;7.29;100.00;101553.75;5124505;27;20491;-50
2023/05/21 03:56:24;;;;;;;5.68;1.85;;;;;;;7.28;100.00;101557.38;5113220;27;20042;-50
2023/05/21 03:58:50;;;;;;;4.40;3.20;;;;;;;7.24;100.00;101553.34;5124726;27;20049;-48
2023/05/21 04:01:16;;;;;;;4.75;2.13;;;;;;;7.19;100.00;101560.84;5117537;27;20333;-52
2023/05/21 04:03:41;;;;;;;3.50;2.78;;;;;;;7.30;100.00;101558.03;5117439;27;20034;-52
2023/05/21 04:06:08;;;;;;;5.70;2.25;;;;;;;7.41;100.00;101573.72;5117875;27;20484;-47
2023/05/21 04:08:35;;;;;;;3.65;1.92;;;;;;;7.47;100.00;101571.47;5125890;27;20031;-48
2023/05/21 04:11:00;;;;;;;7.70;2.63;;;;;;;7.42;100.00;101575.34;5121106;27;20133;-52
2023/05/21 04:13:27;;;;;;;10.40;1.95;;;;;;;7.44;100.00;101572.59;5123816;27;20113;-51
2023/05/21 04:15:53;;;;;;;3.50;1.63;;;;;;;7.44;100.00;101569.94;5108419;27;20114;-51
2023/05/21 04:18:19;;;;;;;4.75;1.60;;;;;;;7.47;100.00;101571.47;5124392;27;20534;-50
2023/05/21 04:20:45;;;;;;;6.50;2.05;;;;;;;7.52;100.00;101574.50;5113790;27;20032;-50
2023/05/21 04:23:10;;;;;;;8.40;3.38;;;;;;;7.59;100.00;101575.56;5101520;27;20026;-50
2023/05/21 04:25:37;;;;;;;7.15;2.33;;;;;;;7.72;100.00;101578.75;5120989;27;20023;-50
2023/05/21 04:28:03;;;;;;;8.27;2.33;;;;;;;7.77;100.00;101575.63;5118761;27;20546;-50
2023/05/21 04:30:28;;;;;;;10.85;3.83;;;;;;;7.73;100.00;101571.66;5120389;27;20379;-48
2023/05/21 04:32:54;;;;;;;2.97;2.15;;;;;;;7.71;100.00;101569.13;5122386;27;20030;-49
2023/05/21 04:35:19;;;;;;;6.57;3.17;;;;;;;7.69;100.00;101575.53;5126946;27;20045;-50
2023/05/21 04:37:44;;;;;;;3.90;1.95;;;;;;;7.82;100.00;101576.03;5115273;27;20486;-49
2023/05/21 04:40:17;;;;;;;7.07;1.80;;;;;;;7.82;100.00;101565.47;5126176;27;20070;-50
2023/05/21 04:42:47;;;;;;;8.65;3.15;;;;;;;7.80;100.00;101572.72;5120947;27;20062;-47
2023/05/21 04:45:12;;;;;;;4.80;1.88;;;;;;;7.80;100.00;101578.84;5112914;27;20031;-48
2023/05/21 04:47:38;;;;;;;7.70;2.05;;;;;;;7.85;100.00;101587.16;5123822;27;20034;-50
2023/05/21 04:50:05;;;;;;;8.23;2.20;;;;;;;7.83;100.00;101583.00;5119928;27;20571;-49
2023/05/21 04:52:30;;;;;;;5.40;2.08;;;;;;;7.78;100.00;101590.53;5117566;27;20545;-47
2023/05/21 04:54:56;;;;;;;3.08;2.65;;;;;;;7.78;100.00;101591.34;5124239;27;20027;-52
2023/05/21 04:57:23;;;;;;;8.95;2.55;;;;;;;7.74;100.00;101589.97;5117766;27;20506;-50
2023/05/21 04:59:49;;;;;;;3.08;1.83;;;;;;;7.79;100.00;101587.72;5119864;27;20532;-48
2023/05/21 05:02:14;;;;;;;7.88;4.70;;;;;;;7.84;100.00;101587.28;5119430;27;20027;-48
2023/05/21 05:04:40;;;;;;;5.18;1.85;;;;;;;7.85;100.00;101586.31;5123404;27;20042;-50
2023/05/21 05:07:06;;;;;;;3.75;2.67;;;;;;;7.90;100.00;101573.53;5114214;27;20027;-48
2023/05/21 05:09:31;;;;;;;5.07;2.97;;;;;;;7.74;100.00;101578.56;5108968;27;20084;-50
2023/05/21 05:11:56;;;;;;;3.25;2.30;;;;;;;7.96;100.00;101577.38;5112536;27;20027;-46
2023/05/21 05:14:22;;;;;;;11.18;2.75;;;;;;;7.97;100.00;101576.38;5112217;27;20031;-51
2023/05/21 05:16:47;;;;;;;3.45;2.08;;;;;;;7.98;100.00;101576.25;5114382;27;20110;-51
2023/05/21 05:19:12;;;;;;;5.32;2.85;;;;;;;8.03;100.00;101568.72;5114950;27;20040;-51
2023/05/21 05:21:38;;;;;;;5.88;2.15;;;;;;;8.02;100.00;101577.59;5119544;27;20032;-49
2023/05/21 05:24:03;;;;;;;5.50;3.25;;;;;;;8.17;100.00;101577.94;5114731;27;20446;-50
2023/05/21 05:26:29;;;;;;;3.55;2.72;;;;;;;8.26;100.00;101579.72;5110304;27;20019;-51
2023/05/21 05:28:54;;;;;;;5.15;3.75;;;;;;;8.38;100.00;101569.72;5121789;27;20039;-47
2023/05/21 05:31:19;;;;;;;8.32;4.10;;;;;;;8.44;100.00;101578.91;5119720;27;20045;-48
2023/05/21 05:33:45;;;;;;;5.93;2.17;;;;;;;8.57;100.00;101581.16;5118043;27;20031;-49
2023/05/21 05:36:10;;;;;;;5.10;2.13;;;;;;;8.65;100.00;101574.16;5108981;27;20045;-50
2023/05/21 05:38:35;;;;;;;6.32;2.10;;;;;;;8.69;100.00;101564.94;5120323;27;20119;-50
2023/05/21 05:41:01;;;;;;;5.88;2.85;;;;;;;8.73;100.00;101565.47;5109135;27;20031;-48
2023/05/21 05:43:26;;;;;;;13.57;2.53;;;;;;;8.81;100.00;101556.78;5117678;27;20046;-48
2023/05/21 05:45:52;;;;;;;7.60;3.75;;;;;;;8.89;100.00;101562.13;5098929;27;20119;-47
2023/05/21 05:48:17;;;;;;;3.20;1.73;;;;;;;8.88;100.00;101550.72;5121824;27;20165;-48
2023/05/21 05:50:42;;;;;;;6.45;2.65;;;;;;;8.91;100.00;101550.41;5113910;27;20042;-49
2023/05/21 05:53:08;;;;;;;6.07;2.13;;;;;;;9.01;100.00;101552.13;5116810;27;20039;-50
2023/05/21 05:55:33;;;;;;;3.00;2.05;;;;;;;9.10;100.00;101541.44;5113340;27;20101;-51
2023/05/21 05:57:59;;;;;;;5.50;2.25;;;;;;;9.20;100.00;101546.63;5112347;27;20554;-50
2023/05/21 06:00:25;;;;;;;2.47;1.95;;;;;;;9.46;100.00;101551.91;5104375;27;20028;-49
2023/05/21 06:02:50;;;;;;;11.48;2.88;;;;;;;9.52;100.00;101548.63;5114930;27;20044;-49
2023/05/21 06:05:15;;;;;;;3.53;1.52;;;;;;;9.55;100.00;101547.47;5115414;27;20686;-49
2023/05/21 06:07:41;;;;;;;2.17;1.83;;;;;;;9.59;100.00;101551.47;5114913;27;20062;-50
2023/05/21 06:10:07;;;;;;;4.25;1.80;;;;;;;9.63;100.00;101547.53;5113054;27;20670;-48
2023/05/21 06:12:32;;;;;;;1.92;1.23;;;;;;;9.71;100.00;101547.56;5115476;27;20456;-50
2023/05/21 06:14:58;;;;;;;3.47;1.20;;;;;;;9.71;100.00;101550.22;5112039;27;20023;-47
2023/05/21 06:17:23;;;;;;;3.13;1.38;;;;;;;9.73;100.00;101547.41;5112013;27;20022;-49
2023/05/21 06:19:48;;;;;;;6.32;2.47;;;;;;;9.76;100.00;101542.63;5116347;27;20528;-49
2023/05/21 06:22:14;;;;;;;3.45;2.20;;;;;;;9.83;100.00;101542.81;5116397;27;20054;-50
2023/05/21 06:24:39;;;;;;;7.72;1.60;;;;;;;9.90;100.00;101541.19;5116594;27;20054;-51
2023/05/21 06:27:05;;;;;;;2.50;1.05;;;;;;;10.18;100.00;101547.06;5111511;27;20920;-47
2023/05/21 06:29:30;;;;;;;3.97;1.65;;;;;;;10.28;100.00;101539.00;5109684;27;20042;-51
2023/05/21 06:31:55;;;;;;;4.18;2.22;;;;;;;10.38;100.00;101538.84;5117879;27;20055;-50
2023/05/21 06:34:20;;;;;;;5.90;2.20;;;;;;;10.43;100.00;101529.41;5116000;27;20092;-49
2023/05/21 06:36:47;;;;;;;4.13;1.67;;;;;;;10.59;100.00;101530.41;5116921;27;20022;-48
2023/05/21 06:39:12;;;;;;;6.57;1.60;;;;;;;10.65;100.00;101527.91;5109158;27;20114;-49
2023/05/21 06:41:37;;;;;;;9.98;3.45;;;;;;;10.79;100.00;101533.53;5116844;27;20175;-52
2023/05/21 06:44:03;;;;;;;3.42;1.83;;;;;;;10.89;100.00;101524.44;5115379;27;20051;-49
2023/05/21 06:46:28;;;;;;;1.65;1.55;;;;;;;10.91;100.00;101522.41;5116311;27;20041;-50
2023/05/21 06:48:54;;;;;;;7.53;1.45;;;;;;;10.94;100.00;101526.56;5118897;27;20066;-51
2023/05/21 06:51:19;;;;;;;4.38;2.03;;;;;;;11.18;100.00;101516.91;5113262;27;20031;-52
2023/05/21 06:53:44;;;;;;;3.95;1.42;;;;;;;11.48;100.00;101518.81;5115815;27;20781;-50
2023/05/21 06:56:10;;;;;;;3.05;1.63;;;;;;;11.57;100.00;101519.63;5120479;27;20155;-51
2023/05/21 06:58:35;;;;;;;6.00;1.63;;;;;;;11.60;100.00;101510.47;5114817;27;20032;-53
2023/05/21 07:01:01;;;;;;;10.10;2.28;;;;;;;11.69;100.00;101512.06;5110391;27;20471;-49
2023/05/21 07:03:26;;;;;;;3.42;0.77;;;;;;;11.83;100.00;101507.88;5119531;27;20518;-52
2023/05/21 07:05:52;;;;;;;6.53;1.73;;;;;;;12.03;100.00;101495.00;5118604;27;20514;-48
2023/05/21 07:08:18;;;;;;;5.38;1.23;;;;;;;12.27;100.00;101500.16;5115525;27;20042;-49
2023/05/21 07:10:44;;;;;;;5.28;1.38;;;;;;;12.34;100.00;101485.16;5117090;27;20041;-51
2023/05/21 07:13:10;;;;;;;2.05;1.15;;;;;;;12.48;100.00;101490.69;5113549;27;20019;-52
2023/05/21 07:15:35;;;;;;;4.38;1.13;;;;;;;12.67;100.00;101490.19;5123061;27;20144;-50
2023/05/21 07:18:01;;;;;;;5.72;0.70;;;;;;;12.82;100.00;101485.72;5122717;27;20028;-50
2023/05/21 07:20:26;;;;;;;3.80;0.93;;;;;;;13.02;100.00;101482.53;5123503;27;20034;-48
2023/05/21 07:22:51;;;;;;;1.38;0.38;;;;;;;13.15;100.00;101481.91;5118615;27;20103;-48
2023/05/21 07:25:16;;;;;;;2.35;1.27;;;;;;;13.14;100.00;101459.78;5104110;27;20370;-48
2023/05/21 07:27:42;;;;;;;0.45;0.45;;;;;;;13.32;100.00;101462.09;5117545;27;20028;-51
2023/05/21 07:30:08;;;;;;;4.45;1.15;;;;;;;13.50;100.00;101469.66;5118076;27;20031;-49
2023/05/21 07:32:33;;;;;;;2.42;0.60;;;;;;;13.50;100.00;101467.00;5120478;27;20031;-49
2023/05/21 07:35:02;;;;;;;2.75;1.20;;;;;;;13.61;100.00;101466.56;5121608;27;20034;-47
2023/05/21 07:37:28;;;;;;;1.33;1.00;;;;;;;13.70;100.00;101467.25;5114200;27;20036;-48
2023/05/21 07:39:55;;;;;;;2.22;0.90;;;;;;;13.87;100.00;101466.03;5117559;27;20023;-50
2023/05/21 07:42:21;;;;;;;3.35;1.10;;;;;;;14.06;100.00;101469.91;5118395;27;20079;-48
2023/05/21 07:44:46;;;;;;;4.60;0.75;;;;;;;14.15;100.00;101474.09;5120707;27;20031;-49
2023/05/21 07:47:11;;;;;;;6.65;1.63;;;;;;;14.09;100.00;101482.84;5115837;27;20488;-47
2023/05/21 07:49:36;;;;;;;2.45;0.60;;;;;;;14.35;100.00;101489.47;5119176;27;20035;-52
2023/05/21 07:52:02;;;;;;;0.85;0.75;;;;;;;14.46;100.00;101483.63;5118511;27;20027;-51
2023/05/21 07:54:27;;;;;;;0.60;0.60;;;;;;;14.45;100.00;101481.13;5119158;27;20024;-48
2023/05/21 07:56:52;;;;;;;1.95;1.13;;;;;;;14.48;100.00;101476.25;5111924;27;20027;-48
2023/05/21 07:59:18;;;;;;;4.13;1.05;;;;;;;14.27;100.00;101478.91;5119138;27;20477;-47
2023/05/21 08:01:43;;;;;;;7.53;1.77;;;;;;;14.59;100.00;101477.59;5101847;27;20054;-49
2023/05/21 08:04:09;;;;;;;5.00;1.27;;;;;;;14.66;100.00;101472.31;5115042;27;20044;-52
2023/05/21 08:06:36;;;;;;;3.22;0.82;;;;;;;14.77;100.00;101477.13;5116440;27;20027;-47
2023/05/21 08:09:02;;;;;;;5.40;1.75;;;;;;;14.95;100.00;101464.09;5107467;27;20550;-49
2023/05/21 08:11:27;;;;;;;10.48;1.10;;;;;;;15.05;100.00;101463.75;5117134;27;20111;-49
2023/05/21 08:13:52;;;;;;;1.60;0.93;;;;;;;15.05;100.00;101456.56;5116144;27;20041;-47
2023/05/21 08:16:18;;;;;;;2.28;1.10;;;;;;;15.26;100.00;101465.50;5114503;27;20065;-46
2023/05/21 08:18:43;;;;;;;3.20;1.00;;;;;;;15.26;100.00;101458.31;5116545;27;20031;-51
2023/05/21 08:21:09;;;;;;;4.53;1.83;;;;;;;15.41;100.00;101454.66;5117455;27;20114;-49
2023/05/21 08:23:34;;;;;;;3.30;0.40;;;;;;;15.51;100.00;101451.63;5117423;27;20064;-47
2023/05/21 08:25:59;;;;;;;4.05;0.77;;;;;;;15.68;100.00;101458.28;5116552;27;20039;-49
2023/05/21 08:28:26;;;;;;;3.17;0.70;;;;;;;15.78;100.00;101461.44;5117847;27;20459;-48
2023/05/21 08:30:51;;;;;;;0.88;0.47;;;;;;;16.02;100.00;101456.53;5103456;27;20035;-51
2023/05/21 08:33:17;;;;;;;2.70;1.33;;;;;;;16.14;100.00;101460.28;5120552;27;20099;-49
2023/05/21 08:35:42;;;;;;;2.35;0.60;;;;;;;16.30;100.00;101459.03;5109635;27;20028;-52
2023/05/21 08:38:07;;;;;;;2.92;1.02;;;;;;;16.21;100.00;101458.44;5119951;27;20027;-51
2023/05/21 08:40:34;;;;;;;2.03;0.93;;;;;;;16.18;100.00;101460.66;5117357;27;20035;-51
2023/05/21 08:43:00;;;;;;;2.50;0.50;;;;;;;16.30;100.00;101461.72;5113173;27;20134;-48
2023/05/21 08:45:26;;;;;;;3.72;0.55;;;;;;;16.46;100.00;101453.28;5112110;27;20484;-51
2023/05/21 08:47:56;;;;;;;1.63;1.30;;;;;;;16.47;100.00;101462.13;5119536;27;20092;-49
2023/05/21 08:50:25;;;;;;;6.43;0.50;;;;;;;16.61;100.00;101460.28;5117035;27;20033;-51
2023/05/21 08:52:50;;;;;;;1.15;0.85;;;;;;;16.60;100.00;101472.84;5114354;27;20113;-49
2023/05/21 08:55:16;;;;;;;2.65;0.68;;;;;;;16.67;100.00;101468.28;5119577;27;20468;-51
2023/05/21 08:57:43;;;;;;;0.90;0.40;;;;;;;16.86;100.00;101457.81;5114149;27;20612;-49
2023/05/21 09:00:09;;;;;;;1.77;0.75;;;;;;;16.90;100.00;101459.84;5103720;27;20031;-53
2023/05/21 09:02:39;;;;;;;0.60;0.55;;;;;;;17.08;100.00;101451.16;5121033;27;20034;-50
2023/05/21 09:05:05;;;;;;;1.08;0.47;;;;;;;17.22;100.00;101457.31;5117354;27;20507;-54
2023/05/21 09:07:38;;;;;;;2.25;0.77;;;;;;;17.07;100.00;101460.25;5114286;27;20034;-48
2023/05/21 09:10:08;;;;;;;2.90;0.80;;;;;;;16.93;100.00;101459.44;5118745;27;20099;-47
2023/05/21 09:12:33;;;;;;;1.33;0.55;;;;;;;17.06;100.00;101447.84;5115071;27;20614;-48
2023/05/21 09:15:00;;;;;;;1.85;1.13;;;;;;;16.96;100.00;101458.19;5113719;27;20038;-53
2023/05/21 09:17:25;;;;;;;7.43;0.77;;;;;;;17.33;100.00;101453.16;5113128;27;20115;-50
2023/05/21 09:20:16;;;;;;;2.45;1.20;;;;;;;17.53;100.00;101453.91;5116799;27;20042;-49
2023/05/21 09:22:43;;;;;;;4.50;0.50;;;;;;;17.77;100.00;101454.19;5120092;27;20026;-50
2023/05/21 09:25:10;;;;;;;2.00;0.40;;;;;;;18.05;100.00;101460.03;5112814;27;20035;-50
2023/05/21 09:27:36;;;;;;;0.60;0.17;;;;;;;18.19;100.00;101467.97;5114026;27;20448;-50
2023/05/21 09:30:03;;;;;;;1.70;0.20;;;;;;;17.95;100.00;101462.34;5112267;27;20038;-48
2023/05/21 09:32:29;;;;;;;0.82;0.60;;;;;;;18.11;100.00;101460.19;5112828;27;20058;-48
2023/05/21 09:34:55;;;;;;;0.77;0.20;;;;;;;18.05;100.00;101451.97;5111606;27;20112;-47
2023/05/21 09:37:21;;;;;;;1.08;0.08;;;;;;;18.31;100.00;101448.25;5115429;27;20108;-55
2023/05/21 09:39:47;;;;;;;0.57;0.20;;;;;;;18.50;100.00;101449.13;5112818;27;20493;-54
2023/05/21 09:42:12;;;;;;;0.98;0.47;;;;;;;18.70;100.00;101448.13;5111754;27;20095;-52
2023/05/21 09:44:38;;;;;;;4.82;0.60;;;;;;;19.07;100.00;101445.50;5132264;27;20034;-52
2023/05/21 09:47:04;;;;;;;3.13;0.85;;;;;;;18.99;100.00;101437.75;5124212;27;20070;-48
2023/05/21 09:49:30;;;;;;;2.47;0.28;;;;;;;19.03;100.00;101434.41;5130013;27;20129;-50
2023/05/21 09:51:56;;;;;;;0.70;0.20;;;;;;;18.99;100.00;101427.81;5131254;27;20130;-49
2023/05/21 09:54:23;;;;;;;2.92;0.32;;;;;;;19.12;100.00;101437.59;5130071;27;20038;-49
2023/05/21 09:56:50;;;;;;;2.28;0.35;;;;;;;19.29;100.00;101425.19;5130142;27;20105;-51
2023/05/21 09:59:16;;;;;;;2.08;0.32;;;;;;;19.30;100.00;101426.81;5131809;27;20022;-52
2023/05/21 10:01:42;;;;;;;3.00;0.47;;;;;;;19.35;100.00;101423.47;5133821;27;20515;-52
2023/05/21 10:04:08;;;;;;;5.00;1.38;;;;;;;19.38;100.00;101431.06;5132557;27;20040;-48
2023/05/21 10:06:40;;;;;;;1.35;0.93;;;;;;;19.26;100.00;101435.56;5132039;27;20376;-52
2023/05/21 10:09:10;;;;;;;8.45;1.40;;;;;;;18.94;100.00;101439.22;5133278;27;20480;-49
2023/05/21 10:11:36;;;;;;;4.32;1.55;;;;;;;19.11;100.00;101433.28;5133486;27;20026;-53
2023/05/21 10:14:17;;;;;;;1.20;0.60;;;;;;;19.42;100.00;101426.09;5134066;27;20380;-48
2023/05/21 10:16:43;;;;;;;0.73;0.73;;;;;;;19.29;100.00;101432.44;5133896;27;20034;-46
2023/05/21 10:19:11;;;;;;;4.00;0.52;;;;;;;18.95;100.00;101432.00;5132441;27;20391;-53
2023/05/21 10:21:38;;;;;;;5.63;0.93;;;;;;;19.16;100.00;101430.75;5132792;27;20027;-50
2023/05/21 10:24:06;;;;;;;2.20;1.15;;;;;;;19.50;100.00;101420.38;5132350;27;20038;-47
2023/05/21 10:26:32;;;;;;;7.88;1.58;;;;;;;19.83;100.00;101419.94;5130938;27;20391;-49
2023/05/21 10:28:59;;;;;;;1.30;0.88;;;;;;;19.27;99.92;101424.59;5130161;27;20041;-50
2023/05/21 10:31:25;;;;;;;3.13;0.60;;;;;;;19.27;100.00;101421.91;5133060;27;20414;-49
2023/05/21 10:33:53;;;;;;;1.25;0.47;;;;;;;20.04;100.00;101413.22;5125400;27;20093;-53
2023/05/21 10:36:20;;;;;;;3.10;1.20;;;;;;;20.45;100.00;101414.19;5128771;27;20065;-55
2023/05/21 10:38:46;;;;;;;1.40;0.50;;;;;;;20.81;98.16;101420.41;5130666;27;20030;-51
2023/05/21 10:41:14;;;;;;;4.15;0.82;;;;;;;20.63;100.00;101422.19;5132454;27;20466;-50
2023/05/21 10:44:01;;;;;;;3.60;1.05;;;;;;;20.64;99.36;101415.72;5128212;27;20038;-49
2023/05/21 10:46:35;;;;;;;4.22;1.08;;;;;;;20.47;100.00;101414.75;5129131;27;20602;-54
2023/05/21 10:49:32;;;;;;;1.73;0.75;;;;;;;20.26;99.05;101408.91;5136281;27;20505;-50
2023/05/21 10:52:25;;;;;;;3.50;0.65;;;;;;;19.81;100.00;101416.66;5131352;27;20398;-48
2023/05/21 10:55:19;;;;;;;2.22;0.60;;;;;;;19.66;100.00;101418.91;5134180;27;20102;-51
2023/05/21 10:58:09;;;;;;;10.45;1.13;;;;;;;19.38;100.00;101418.44;5136093;27;20042;-47
2023/05/21 11:00:35;;;;;;;1.58;1.45;;;;;;;19.51;100.00;101416.63;5126463;27;20488;-51
2023/05/21 11:03:02;;;;;;;1.50;0.82;;;;;;;18.88;100.00;101413.25;5130152;27;20027;-47
2023/05/21 11:05:56;;;;;;;1.48;0.63;;;;;;;18.94;100.00;101411.53;5111304;27;20021;-49
2023/05/21 11:08:30;;;;;;;3.35;0.70;;;;;;;19.20;100.00;101413.09;5135325;27;20030;-49
2023/05/21 11:10:57;;;;;;;2.63;0.47;;;;;;;19.17;100.00;101400.09;5128040;27;20023;-50
2023/05/21 11:13:25;;;;;;;2.25;0.88;;;;;;;18.89;100.00;101397.97;5131137;27;20060;-50
2023/05/21 11:15:56;;;;;;;5.93;1.60;;;;;;;18.92;100.00;101408.25;5137719;27;20072;-50
2023/05/21 11:18:22;;;;;;;3.10;1.13;;;;;;;19.08;100.00;101412.22;5136541;27;20030;-51
2023/05/21 11:20:50;;;;;;;2.40;0.95;;;;;;;18.79;100.00;101394.97;5131898;27;20032;-47